createdAt,value
2019-02-27T00:00:48.630Z,0
2019-02-27T00:01:44.896Z,0
2019-02-27T00:02:44.887Z,0
2019-02-27T00:03:44.869Z,0
2019-02-27T00:04:45.090Z,0
2019-02-27T00:05:48.616Z,0
2019-02-27T00:06:47.623Z,0
2019-02-27T00:07:44.800Z,0
2019-02-27T00:08:44.793Z,0
2019-02-27T00:09:44.770Z,0
2019-02-27T00:10:48.376Z,0
2019-02-27T00:11:48.157Z,0
2019-02-27T00:12:44.735Z,0
2019-02-27T00:13:44.711Z,0
2019-02-27T00:14:44.694Z,0
2019-02-27T00:15:47.374Z,0
2019-02-27T00:16:49.143Z,0
2019-02-27T00:17:44.677Z,0
2019-02-27T00:18:44.635Z,0
2019-02-27T00:19:44.672Z,0
2019-02-27T00:20:47.061Z,0
2019-02-27T00:21:48.079Z,0
2019-02-27T00:22:44.826Z,0
2019-02-27T00:23:44.326Z,0
2019-02-27T00:24:44.542Z,0
2019-02-27T00:25:46.076Z,0
2019-02-27T00:26:49.243Z,0
2019-02-27T00:27:48.668Z,0
2019-02-27T00:28:44.480Z,0
2019-02-27T00:29:44.466Z,0
2019-02-27T00:30:47.456Z,0
2019-02-27T00:31:47.725Z,0
2019-02-27T00:32:44.426Z,0
2019-02-27T00:34:04.386Z,0
2019-02-27T00:34:44.405Z,0
2019-02-27T00:35:48.377Z,0
2019-02-27T00:36:47.350Z,0
2019-02-27T00:37:44.347Z,0
2019-02-27T00:38:44.346Z,0
2019-02-27T00:39:44.319Z,0
2019-02-27T00:40:48.101Z,0
2019-02-27T00:41:48.204Z,0
2019-02-27T00:42:44.268Z,0
2019-02-27T00:43:44.256Z,0
2019-02-27T00:44:44.362Z,0
2019-02-27T00:45:47.041Z,0
2019-02-27T00:46:48.486Z,0
2019-02-27T00:47:44.190Z,0
2019-02-27T00:48:44.178Z,0
2019-02-27T00:49:44.161Z,0
2019-02-27T00:50:48.461Z,0
2019-02-27T00:51:47.223Z,0
2019-02-27T00:52:44.116Z,0
2019-02-27T00:53:44.096Z,0
2019-02-27T00:54:44.330Z,0
2019-02-27T00:55:48.079Z,0
2019-02-27T00:56:47.308Z,0
2019-02-27T00:57:44.036Z,0
2019-02-27T00:58:44.027Z,0
2019-02-27T00:59:44.015Z,0
2019-02-27T01:00:48.595Z,0
2019-02-27T01:01:47.197Z,0
2019-02-27T01:02:43.963Z,0
2019-02-27T01:03:43.950Z,0
2019-02-27T01:04:45.072Z,0
2019-02-27T01:05:48.129Z,0
2019-02-27T01:06:44.992Z,0
2019-02-27T01:07:43.882Z,0
2019-02-27T01:08:43.891Z,0
2019-02-27T01:09:46.392Z,0
2019-02-27T01:10:47.429Z,0
2019-02-27T01:11:43.818Z,0
2019-02-27T01:12:43.811Z,0
2019-02-27T01:13:43.790Z,0
2019-02-27T01:14:46.482Z,0
2019-02-27T01:15:46.445Z,0
2019-02-27T01:16:43.742Z,0
2019-02-27T01:17:43.725Z,0
2019-02-27T01:18:43.709Z,0
2019-02-27T01:19:49.925Z,0
2019-02-27T01:20:48.109Z,0
2019-02-27T01:21:43.666Z,0
2019-02-27T01:22:43.646Z,0
2019-02-27T01:23:46.298Z,0
2019-02-27T01:24:43.611Z,0
2019-02-27T01:25:43.853Z,0
2019-02-27T01:26:43.588Z,0
2019-02-27T01:27:47.490Z,0
2019-02-27T01:28:47.132Z,0
2019-02-27T01:29:43.296Z,0
2019-02-27T01:30:43.544Z,0
2019-02-27T01:31:43.520Z,0
2019-02-27T01:32:43.490Z,0
2019-02-27T01:33:47.472Z,0
2019-02-27T01:34:46.695Z,0
2019-02-27T01:35:43.448Z,0
2019-02-27T01:36:43.432Z,0
2019-02-27T01:37:43.417Z,0
2019-02-27T01:38:47.149Z,0
2019-02-27T01:39:44.756Z,0
2019-02-27T01:40:43.368Z,0
2019-02-27T01:41:43.352Z,0
2019-02-27T01:42:43.353Z,0
2019-02-27T01:43:46.767Z,0
2019-02-27T01:44:43.935Z,0
2019-02-27T01:45:43.287Z,0
2019-02-27T01:46:43.278Z,0
2019-02-27T01:47:45.930Z,0
2019-02-27T01:48:47.581Z,0
2019-02-27T01:49:43.226Z,0
2019-02-27T01:50:43.208Z,0
2019-02-27T01:51:43.190Z,0
2019-02-27T01:52:44.012Z,0
2019-02-27T01:53:47.135Z,0
2019-02-27T01:54:43.151Z,0
2019-02-27T01:55:43.127Z,0
2019-02-27T01:56:43.361Z,0
2019-02-27T01:57:46.131Z,0
2019-02-27T01:58:45.897Z,0
2019-02-27T01:59:43.067Z,0
2019-02-27T02:00:42.823Z,0
2019-02-27T02:01:43.030Z,0
2019-02-27T02:02:47.634Z,0
2019-02-27T02:03:47.139Z,0
2019-02-27T02:04:42.992Z,0
2019-02-27T02:05:42.484Z,0
2019-02-27T02:06:42.959Z,0
2019-02-27T02:07:47.245Z,0
2019-02-27T02:08:42.922Z,0
2019-02-27T02:09:42.919Z,0
2019-02-27T02:10:42.890Z,0
2019-02-27T02:11:45.958Z,0
2019-02-27T02:12:46.189Z,0
2019-02-27T02:13:42.849Z,0
2019-02-27T02:14:42.834Z,0
2019-02-27T02:15:42.814Z,0
2019-02-27T02:16:44.261Z,0
2019-02-27T02:17:47.846Z,0
2019-02-27T02:18:42.773Z,0
2019-02-27T02:19:42.746Z,0
2019-02-27T02:20:42.733Z,0
2019-02-27T02:21:44.394Z,0
2019-02-27T02:22:45.874Z,0
2019-02-27T02:23:44.866Z,0
2019-02-27T02:24:42.670Z,0
2019-02-27T02:25:42.668Z,0
2019-02-27T02:26:45.032Z,0
2019-02-27T02:27:46.159Z,0
2019-02-27T02:28:42.608Z,0
2019-02-27T02:29:42.359Z,0
2019-02-27T02:30:42.625Z,0
2019-02-27T02:31:48.155Z,0
2019-02-27T02:32:42.560Z,0
2019-02-27T02:33:42.531Z,0
2019-02-27T02:34:47.118Z,0
2019-02-27T02:35:42.510Z,0
2019-02-27T02:36:42.503Z,0
2019-02-27T02:37:45.973Z,0
2019-02-27T02:38:42.454Z,0
2019-02-27T02:39:42.463Z,0
2019-02-27T02:40:42.436Z,0
2019-02-27T02:41:49.260Z,0
2019-02-27T02:42:42.399Z,0
2019-02-27T02:43:47.344Z,0
2019-02-27T02:44:42.370Z,0
2019-02-27T02:45:43.048Z,0
2019-02-27T02:46:49.538Z,0
2019-02-27T02:47:42.315Z,0
2019-02-27T02:48:42.080Z,0
2019-02-27T02:49:47.167Z,0
2019-02-27T02:50:42.306Z,0
2019-02-27T02:51:42.036Z,0
2019-02-27T02:52:47.375Z,0
2019-02-27T02:53:42.248Z,0
2019-02-27T02:54:45.902Z,0
2019-02-27T02:55:47.439Z,0
2019-02-27T02:56:42.168Z,0
2019-02-27T02:57:45.667Z,0
2019-02-27T02:58:47.014Z,0
2019-02-27T02:59:42.388Z,0
2019-02-27T03:00:47.621Z,0
2019-02-27T03:01:42.102Z,0
2019-02-27T03:02:42.088Z,0
2019-02-27T03:03:45.676Z,0
2019-02-27T03:04:47.840Z,0
2019-02-27T03:05:42.039Z,0
2019-02-27T03:06:45.291Z,0
2019-02-27T03:07:47.071Z,0
2019-02-27T03:08:41.995Z,0
2019-02-27T03:09:41.994Z,0
2019-02-27T03:10:47.551Z,0
2019-02-27T03:11:41.946Z,0
2019-02-27T03:12:41.933Z,0
2019-02-27T03:13:46.503Z,0
2019-02-27T03:14:41.902Z,0
2019-02-27T03:15:41.900Z,0
2019-02-27T03:16:46.110Z,0
2019-02-27T03:17:41.610Z,0
2019-02-27T03:18:41.856Z,0
2019-02-27T03:19:48.609Z,0
2019-02-27T03:20:41.815Z,0
2019-02-27T03:21:41.785Z,0
2019-02-27T03:22:47.578Z,0
2019-02-27T03:23:41.776Z,0
2019-02-27T03:24:41.744Z,0
2019-02-27T03:25:47.629Z,0
2019-02-27T03:26:41.722Z,0
2019-02-27T03:27:41.700Z,0
2019-02-27T03:28:47.872Z,0
2019-02-27T03:29:41.674Z,0
2019-02-27T03:30:46.180Z,0
2019-02-27T03:31:41.665Z,0
2019-02-27T03:32:50.920Z,0
2019-02-27T03:33:41.677Z,0
2019-02-27T03:34:54.137Z,0
2019-02-27T03:35:41.575Z,0
2019-02-27T03:36:45.786Z,0
2019-02-27T03:37:47.952Z,0
2019-02-27T03:38:41.532Z,0
2019-02-27T03:39:45.140Z,0
2019-02-27T03:40:41.273Z,0
2019-02-27T03:41:41.500Z,0
2019-02-27T03:42:44.516Z,0
2019-02-27T03:43:45.612Z,0
2019-02-27T03:44:41.449Z,0
2019-02-27T03:45:41.447Z,0
2019-02-27T03:46:45.371Z,0
2019-02-27T03:47:41.401Z,0
2019-02-27T03:48:41.388Z,0
2019-02-27T03:49:46.915Z,0
2019-02-27T03:50:41.377Z,0
2019-02-27T03:51:41.354Z,0
2019-02-27T03:52:45.728Z,0
2019-02-27T03:53:43.112Z,0
2019-02-27T03:54:41.304Z,0
2019-02-27T03:55:42.425Z,0
2019-02-27T03:56:46.012Z,0
2019-02-27T03:57:41.261Z,0
2019-02-27T03:58:41.250Z,0
2019-02-27T03:59:47.065Z,0
2019-02-27T04:00:42.080Z,0
2019-02-27T04:01:41.196Z,0
2019-02-27T04:02:46.598Z,0
2019-02-27T04:03:41.183Z,0
2019-02-27T04:04:41.194Z,0
2019-02-27T04:05:48.693Z,0
2019-02-27T04:06:41.140Z,0
2019-02-27T04:07:42.155Z,0
2019-02-27T04:08:48.435Z,0
2019-02-27T04:09:41.091Z,0
2019-02-27T04:10:41.761Z,0
2019-02-27T04:11:46.414Z,0
2019-02-27T04:12:41.100Z,0
2019-02-27T04:13:41.032Z,0
2019-02-27T04:14:47.677Z,0
2019-02-27T04:15:41.025Z,0
2019-02-27T04:16:42.875Z,0
2019-02-27T04:17:40.983Z,0
2019-02-27T04:18:40.960Z,0
2019-02-27T04:19:46.171Z,0
2019-02-27T04:20:40.934Z,0
2019-02-27T04:21:40.921Z,0
2019-02-27T04:22:46.149Z,0
2019-02-27T04:23:40.877Z,0
2019-02-27T04:24:40.898Z,0
2019-02-27T04:25:41.752Z,0
2019-02-27T04:26:46.454Z,0
2019-02-27T04:27:40.820Z,0
2019-02-27T04:28:40.807Z,0
2019-02-27T04:29:45.712Z,0
2019-02-27T04:30:40.534Z,0
2019-02-27T04:31:40.777Z,0
2019-02-27T04:32:40.755Z,0
2019-02-27T04:33:40.980Z,0
2019-02-27T04:34:43.127Z,0
2019-02-27T04:35:44.296Z,0
2019-02-27T04:36:40.693Z,0
2019-02-27T04:37:40.658Z,0
2019-02-27T04:38:40.679Z,0
2019-02-27T04:39:43.570Z,0
2019-02-27T04:40:41.681Z,0
2019-02-27T04:41:40.615Z,0
2019-02-27T04:42:40.340Z,0
2019-02-27T04:43:42.149Z,0
2019-02-27T04:44:45.685Z,0
2019-02-27T04:45:40.560Z,0
2019-02-27T04:46:40.527Z,0
2019-02-27T04:47:40.508Z,0
2019-02-27T04:48:40.490Z,0
2019-02-27T04:49:44.649Z,0
2019-02-27T04:50:41.660Z,0
2019-02-27T04:51:40.449Z,0
2019-02-27T04:52:40.432Z,0
2019-02-27T04:53:43.249Z,0
2019-02-27T04:54:46.132Z,0
2019-02-27T04:55:40.388Z,0
2019-02-27T04:56:40.373Z,0
2019-02-27T04:57:43.695Z,0
2019-02-27T04:58:45.429Z,0
2019-02-27T04:59:40.339Z,0
2019-02-27T05:00:40.307Z,0
2019-02-27T05:01:43.509Z,0
2019-02-27T05:02:40.307Z,0
2019-02-27T05:03:40.269Z,0
2019-02-27T05:04:44.532Z,0
2019-02-27T05:05:43.621Z,0
2019-02-27T05:06:40.216Z,0
2019-02-27T05:07:40.208Z,0
2019-02-27T05:08:40.210Z,0
2019-02-27T05:09:43.308Z,0
2019-02-27T05:10:43.632Z,0
2019-02-27T05:11:40.138Z,0
2019-02-27T05:12:40.127Z,0
2019-02-27T05:13:41.636Z,0
2019-02-27T05:14:40.097Z,0
2019-02-27T05:15:43.659Z,0
2019-02-27T05:16:40.061Z,0
2019-02-27T05:17:40.046Z,0
2019-02-27T05:18:40.027Z,0
2019-02-27T05:19:44.234Z,0
2019-02-27T05:20:40.002Z,0
2019-02-27T05:21:39.993Z,0
2019-02-27T05:22:39.967Z,0
2019-02-27T05:23:42.716Z,0
2019-02-27T05:24:43.576Z,0
2019-02-27T05:25:39.922Z,0
2019-02-27T05:26:39.907Z,0
2019-02-27T05:27:39.889Z,0
2019-02-27T05:28:44.141Z,0
2019-02-27T05:29:44.502Z,0
2019-02-27T05:30:39.847Z,0
2019-02-27T05:31:39.826Z,0
2019-02-27T05:32:39.820Z,0
2019-02-27T05:33:47.041Z,0
2019-02-27T05:34:39.798Z,0
2019-02-27T05:35:40.019Z,0
2019-02-27T05:36:41.722Z,0
2019-02-27T05:37:43.270Z,0
2019-02-27T05:38:40.956Z,0
2019-02-27T05:39:40.981Z,0
2019-02-27T05:40:39.694Z,0
2019-02-27T05:41:42.551Z,0
2019-02-27T05:42:43.634Z,0
2019-02-27T05:43:39.644Z,0
2019-02-27T05:44:39.621Z,0
2019-02-27T05:45:40.682Z,0
2019-02-27T05:46:42.825Z,5
2019-02-27T05:47:44.654Z,5
2019-02-27T05:48:39.612Z,5
2019-02-27T05:49:39.565Z,5
2019-02-27T05:50:44.423Z,5
2019-02-27T05:51:39.508Z,5
2019-02-27T05:52:39.500Z,5
2019-02-27T05:53:39.241Z,10
2019-02-27T05:54:42.295Z,10
2019-02-27T05:55:43.842Z,10
2019-02-27T05:56:39.434Z,10
2019-02-27T05:57:40.907Z,10
2019-02-27T05:58:39.396Z,10
2019-02-27T05:59:39.387Z,10
2019-02-27T06:00:39.366Z,15
2019-02-27T06:01:42.819Z,15
2019-02-27T06:02:39.101Z,15
2019-02-27T06:03:39.321Z,20
2019-02-27T06:04:39.359Z,20
2019-02-27T06:05:51.726Z,25
2019-02-27T06:06:39.529Z,25
2019-02-27T06:07:39.262Z,25
2019-02-27T06:08:43.772Z,30
2019-02-27T06:09:41.384Z,30
2019-02-27T06:10:39.212Z,35
2019-02-27T06:11:42.504Z,35
2019-02-27T06:12:42.482Z,35
2019-02-27T06:13:39.158Z,35
2019-02-27T06:14:39.142Z,35
2019-02-27T06:15:39.128Z,40
2019-02-27T06:16:43.270Z,40
2019-02-27T06:17:53.644Z,40
2019-02-27T06:18:39.084Z,45
2019-02-27T06:19:42.886Z,45
2019-02-27T06:20:43.984Z,45
2019-02-27T06:21:40.987Z,50
2019-02-27T06:22:40.392Z,50
2019-02-27T06:23:42.046Z,55
2019-02-27T06:24:38.984Z,60
2019-02-27T06:25:38.998Z,60
2019-02-27T06:26:41.888Z,70
2019-02-27T06:27:39.956Z,65
2019-02-27T06:28:38.929Z,65
2019-02-27T06:29:38.928Z,70
2019-02-27T06:30:40.683Z,75
2019-02-27T06:31:44.483Z,75
2019-02-27T06:32:40.762Z,70
2019-02-27T06:33:38.852Z,70
2019-02-27T06:34:38.835Z,75
2019-02-27T06:35:43.004Z,75
2019-02-27T06:36:44.485Z,75
2019-02-27T06:37:38.787Z,80
2019-02-27T06:38:38.768Z,80
2019-02-27T06:39:41.466Z,85
2019-02-27T06:40:42.010Z,95
2019-02-27T06:41:39.898Z,95
2019-02-27T06:42:38.977Z,95
2019-02-27T06:43:38.701Z,100
2019-02-27T06:44:41.312Z,105
2019-02-27T06:45:38.719Z,110
2019-02-27T06:46:38.649Z,115
2019-02-27T06:47:42.495Z,120
2019-02-27T06:48:43.004Z,125
2019-02-27T06:49:38.604Z,130
2019-02-27T06:50:38.588Z,135
2019-02-27T06:51:42.578Z,135
2019-02-27T06:52:40.137Z,140
2019-02-27T06:53:38.558Z,150
2019-02-27T06:54:40.198Z,140
2019-02-27T06:55:38.707Z,155
2019-02-27T06:56:38.511Z,155
2019-02-27T06:57:40.800Z,145
2019-02-27T06:58:38.477Z,155
2019-02-27T06:59:38.463Z,155
2019-02-27T07:00:43.151Z,185
2019-02-27T07:01:38.434Z,180
2019-02-27T07:02:38.427Z,180
2019-02-27T07:03:40.361Z,195
2019-02-27T07:04:41.678Z,185
2019-02-27T07:05:38.382Z,200
2019-02-27T07:06:39.315Z,195
2019-02-27T07:07:41.039Z,200
2019-02-27T07:08:42.762Z,195
2019-02-27T07:09:38.329Z,205
2019-02-27T07:10:38.317Z,205
2019-02-27T07:11:38.317Z,225
2019-02-27T07:12:38.299Z,210
2019-02-27T07:13:39.386Z,210
2019-02-27T07:14:41.072Z,235
2019-02-27T07:15:38.252Z,255
2019-02-27T07:16:38.242Z,245
2019-02-27T07:17:40.993Z,255
2019-02-27T07:18:41.417Z,275
2019-02-27T07:19:38.211Z,255
2019-02-27T07:20:38.190Z,275
2019-02-27T07:21:42.084Z,240
2019-02-27T07:22:38.178Z,245
2019-02-27T07:23:40.003Z,270
2019-02-27T07:24:42.378Z,260
2019-02-27T07:25:41.895Z,260
2019-02-27T07:26:38.126Z,230
2019-02-27T07:27:41.079Z,275
2019-02-27T07:28:38.104Z,275
2019-02-27T07:29:38.111Z,275
2019-02-27T07:30:39.699Z,265
2019-02-27T07:31:38.108Z,290
2019-02-27T07:32:40.670Z,290
2019-02-27T07:33:42.767Z,285
2019-02-27T07:34:38.031Z,305
2019-02-27T07:35:38.783Z,305
2019-02-27T07:36:40.660Z,315
2019-02-27T07:37:38.011Z,310
2019-02-27T07:38:37.994Z,305
2019-02-27T07:39:42.196Z,320
2019-02-27T07:40:37.971Z,325
2019-02-27T07:41:37.958Z,270
2019-02-27T07:42:43.399Z,225
2019-02-27T07:43:37.948Z,325
2019-02-27T07:44:42.271Z,335
2019-02-27T07:45:37.928Z,345
2019-02-27T07:46:38.061Z,360
2019-02-27T07:47:37.906Z,355
2019-02-27T07:48:37.883Z,355
2019-02-27T07:49:40.938Z,355
2019-02-27T07:50:39.703Z,360
2019-02-27T07:51:37.860Z,375
2019-02-27T07:52:41.841Z,385
2019-02-27T07:53:37.903Z,385
2019-02-27T07:54:39.035Z,360
2019-02-27T07:55:38.045Z,385
2019-02-27T07:56:37.818Z,370
2019-02-27T07:57:37.802Z,290
2019-02-27T07:58:42.395Z,220
2019-02-27T07:59:40.486Z,210
2019-02-27T08:00:37.777Z,210
2019-02-27T08:01:46.057Z,210
2019-02-27T08:02:40.680Z,210
2019-02-27T08:03:37.740Z,205
2019-02-27T08:04:37.503Z,205
2019-02-27T08:05:38.607Z,205
2019-02-27T08:06:43.907Z,205
2019-02-27T08:07:37.723Z,205
2019-02-27T08:08:37.706Z,205
2019-02-27T08:09:40.377Z,205
2019-02-27T08:10:41.593Z,205
2019-02-27T08:11:37.466Z,205
2019-02-27T08:12:37.681Z,205
2019-02-27T08:13:39.662Z,205
2019-02-27T08:14:41.879Z,205
2019-02-27T08:15:37.641Z,205
2019-02-27T08:16:41.379Z,205
2019-02-27T08:17:38.024Z,205
2019-02-27T08:18:43.947Z,205
2019-02-27T08:19:37.617Z,205
2019-02-27T08:20:37.580Z,200
2019-02-27T08:21:37.574Z,200
2019-02-27T08:22:37.603Z,200
2019-02-27T08:23:37.689Z,200
2019-02-27T08:24:38.581Z,200
2019-02-27T08:25:37.536Z,195
2019-02-27T08:26:38.933Z,195
2019-02-27T08:27:37.526Z,195
2019-02-27T08:28:37.500Z,195
2019-02-27T08:29:37.482Z,195
2019-02-27T08:30:37.482Z,195
2019-02-27T08:31:39.223Z,195
2019-02-27T08:32:41.413Z,195
2019-02-27T08:33:37.444Z,195
2019-02-27T08:34:37.438Z,195
2019-02-27T08:35:37.431Z,195
2019-02-27T08:36:37.425Z,195
2019-02-27T08:37:37.403Z,195
2019-02-27T08:38:37.388Z,195
2019-02-27T08:39:37.380Z,190
2019-02-27T08:40:37.625Z,190
2019-02-27T08:41:40.546Z,190
2019-02-27T08:42:43.007Z,190
2019-02-27T08:43:37.690Z,190
2019-02-27T08:44:37.074Z,190
2019-02-27T08:45:37.314Z,190
2019-02-27T08:46:41.565Z,190
2019-02-27T08:47:40.795Z,190
2019-02-27T08:48:37.278Z,190
2019-02-27T08:49:38.971Z,190
2019-02-27T08:50:40.749Z,190
2019-02-27T08:51:39.734Z,190
2019-02-27T08:52:37.246Z,190
2019-02-27T08:53:39.236Z,190
2019-02-27T08:54:41.750Z,190
2019-02-27T08:55:41.563Z,190
2019-02-27T08:56:39.478Z,190
2019-02-27T08:57:37.182Z,185
2019-02-27T08:58:40.229Z,185
2019-02-27T08:59:41.867Z,185
2019-02-27T09:00:37.169Z,185
2019-02-27T09:01:37.810Z,185
2019-02-27T09:02:39.722Z,185
2019-02-27T09:03:41.143Z,185
2019-02-27T09:04:37.118Z,185
2019-02-27T09:05:36.861Z,185
2019-02-27T09:06:37.700Z,185
2019-02-27T09:07:42.872Z,185
2019-02-27T09:08:43.033Z,185
2019-02-27T09:09:38.657Z,185
2019-02-27T09:10:40.016Z,185
2019-02-27T09:11:42.032Z,190
2019-02-27T09:12:37.044Z,185
2019-02-27T09:13:37.015Z,185
2019-02-27T09:14:37.015Z,185
2019-02-27T09:15:36.994Z,185
2019-02-27T09:16:36.979Z,180
2019-02-27T09:17:37.350Z,180
2019-02-27T09:18:40.360Z,180
2019-02-27T09:19:36.981Z,180
2019-02-27T09:20:36.954Z,180
2019-02-27T09:21:37.788Z,180
2019-02-27T09:22:39.286Z,180
2019-02-27T09:23:36.907Z,180
2019-02-27T09:24:36.903Z,180
2019-02-27T09:25:36.887Z,180
2019-02-27T09:26:42.330Z,175
2019-02-27T09:27:39.891Z,175
2019-02-27T09:28:36.856Z,175
2019-02-27T09:29:36.852Z,175
2019-02-27T09:30:39.510Z,175
2019-02-27T09:31:52.815Z,175
2019-02-27T09:32:36.815Z,175
2019-02-27T09:33:45.553Z,175
2019-02-27T09:34:37.010Z,175
2019-02-27T09:35:45.667Z,175
2019-02-27T09:36:36.774Z,170
2019-02-27T09:37:36.541Z,170
2019-02-27T09:38:36.758Z,170
2019-02-27T09:39:42.198Z,170
2019-02-27T09:40:43.489Z,170
2019-02-27T09:41:36.733Z,170
2019-02-27T09:42:36.727Z,170
2019-02-27T09:43:39.450Z,170
2019-02-27T09:44:41.124Z,175
2019-02-27T09:45:37.570Z,175
2019-02-27T09:46:36.677Z,175
2019-02-27T09:47:36.664Z,175
2019-02-27T09:48:40.369Z,175
2019-02-27T09:49:37.923Z,170
2019-02-27T09:50:36.664Z,170
2019-02-27T09:51:36.626Z,170
2019-02-27T09:52:39.394Z,170
2019-02-27T09:53:41.252Z,170
2019-02-27T09:54:38.645Z,170
2019-02-27T09:55:36.589Z,170
2019-02-27T09:56:39.904Z,170
2019-02-27T09:57:39.801Z,165
2019-02-27T09:58:36.326Z,165
2019-02-27T09:59:36.557Z,165
2019-02-27T10:00:38.118Z,165
2019-02-27T10:01:41.600Z,165
2019-02-27T10:02:36.538Z,165
2019-02-27T10:03:37.674Z,165
2019-02-27T10:04:38.408Z,165
2019-02-27T10:05:43.264Z,165
2019-02-27T10:06:36.485Z,165
2019-02-27T10:07:36.481Z,165
2019-02-27T10:08:36.485Z,165
2019-02-27T10:09:40.382Z,160
2019-02-27T10:10:36.449Z,160
2019-02-27T10:11:36.438Z,160
2019-02-27T10:12:37.224Z,160
2019-02-27T10:13:40.194Z,160
2019-02-27T10:14:36.408Z,160
2019-02-27T10:15:36.944Z,160
2019-02-27T10:16:39.457Z,160
2019-02-27T10:17:37.854Z,160
2019-02-27T10:18:36.672Z,160
2019-02-27T10:19:37.204Z,160
2019-02-27T10:20:39.516Z,160
2019-02-27T10:21:36.355Z,160
2019-02-27T10:22:36.381Z,160
2019-02-27T10:23:39.939Z,160
2019-02-27T10:24:39.879Z,155
2019-02-27T10:25:36.312Z,160
2019-02-27T10:26:36.299Z,160
2019-02-27T10:27:38.771Z,160
2019-02-27T10:28:41.324Z,155
2019-02-27T10:29:36.274Z,155
2019-02-27T10:30:36.275Z,155
2019-02-27T10:31:36.459Z,155
2019-02-27T10:32:38.940Z,155
2019-02-27T10:33:35.991Z,155
2019-02-27T10:34:36.351Z,155
2019-02-27T10:35:41.993Z,155
2019-02-27T10:36:40.677Z,155
2019-02-27T10:37:36.525Z,155
2019-02-27T10:38:42.580Z,155
2019-02-27T10:39:39.407Z,155
2019-02-27T10:40:35.939Z,155
2019-02-27T10:41:36.173Z,155
2019-02-27T10:42:36.165Z,155
2019-02-27T10:43:36.153Z,155
2019-02-27T10:44:39.168Z,155
2019-02-27T10:45:36.133Z,155
2019-02-27T10:46:36.126Z,155
2019-02-27T10:47:42.366Z,155
2019-02-27T10:48:36.835Z,155
2019-02-27T10:49:38.144Z,155
2019-02-27T10:50:38.445Z,155
2019-02-27T10:51:37.544Z,155
2019-02-27T10:52:36.070Z,155
2019-02-27T10:53:37.314Z,155
2019-02-27T10:54:36.988Z,155
2019-02-27T10:55:36.578Z,155
2019-02-27T10:56:36.042Z,155
2019-02-27T10:57:45.432Z,155
2019-02-27T10:58:36.015Z,155
2019-02-27T10:59:36.013Z,155
2019-02-27T11:00:36.003Z,155
2019-02-27T11:01:40.915Z,155
2019-02-27T11:02:35.996Z,155
2019-02-27T11:03:36.871Z,155
2019-02-27T11:04:41.172Z,155
2019-02-27T11:05:36.015Z,155
2019-02-27T11:06:47.556Z,155
2019-02-27T11:07:35.984Z,155
2019-02-27T11:08:38.387Z,155
2019-02-27T11:09:38.243Z,155
2019-02-27T11:10:35.927Z,155
2019-02-27T11:11:35.913Z,150
2019-02-27T11:12:38.711Z,150
2019-02-27T11:13:35.908Z,150
2019-02-27T11:14:41.349Z,150
2019-02-27T11:15:40.816Z,150
2019-02-27T11:16:37.443Z,150
2019-02-27T11:17:35.860Z,150
2019-02-27T11:18:35.862Z,150
2019-02-27T11:19:37.321Z,150
2019-02-27T11:20:35.604Z,150
2019-02-27T11:21:35.341Z,150
2019-02-27T11:22:38.821Z,150
2019-02-27T11:23:35.813Z,150
2019-02-27T11:24:35.801Z,150
2019-02-27T11:25:35.844Z,150
2019-02-27T11:26:40.345Z,150
2019-02-27T11:27:36.277Z,150
2019-02-27T11:28:35.771Z,150
2019-02-27T11:29:35.826Z,150
2019-02-27T11:30:40.774Z,150
2019-02-27T11:31:35.748Z,150
2019-02-27T11:32:35.761Z,150
2019-02-27T11:33:39.897Z,150
2019-02-27T11:34:35.730Z,150
2019-02-27T11:35:35.718Z,150
2019-02-27T11:36:38.841Z,150
2019-02-27T11:37:35.707Z,150
2019-02-27T11:38:35.462Z,150
2019-02-27T11:39:39.790Z,150
2019-02-27T11:40:35.687Z,150
2019-02-27T11:41:35.668Z,150
2019-02-27T11:42:41.157Z,150
2019-02-27T11:43:37.868Z,150
2019-02-27T11:44:35.549Z,150
2019-02-27T11:45:35.643Z,150
2019-02-27T11:46:40.428Z,150
2019-02-27T11:47:35.623Z,150
2019-02-27T11:48:35.621Z,150
2019-02-27T11:49:36.248Z,150
2019-02-27T11:50:35.619Z,150
2019-02-27T11:51:37.362Z,150
2019-02-27T11:52:38.187Z,150
2019-02-27T11:53:40.232Z,150
2019-02-27T11:54:35.571Z,150
2019-02-27T11:55:35.569Z,150
2019-02-27T11:56:35.557Z,145
2019-02-27T11:57:38.268Z,150
2019-02-27T11:58:40.575Z,150
2019-02-27T11:59:35.533Z,150
2019-02-27T12:00:35.537Z,150
2019-02-27T12:01:36.702Z,150
2019-02-27T12:02:44.222Z,145
2019-02-27T12:03:35.502Z,145
2019-02-27T12:04:35.494Z,145
2019-02-27T12:05:41.724Z,145
2019-02-27T12:06:35.478Z,145
2019-02-27T12:07:35.492Z,145
2019-02-27T12:08:37.358Z,145
2019-02-27T12:09:39.848Z,145
2019-02-27T12:10:35.471Z,145
2019-02-27T12:11:35.447Z,145
2019-02-27T12:12:35.435Z,145
2019-02-27T12:13:39.445Z,145
2019-02-27T12:14:35.422Z,145
2019-02-27T12:15:36.761Z,145
2019-02-27T12:16:35.750Z,145
2019-02-27T12:17:35.992Z,145
2019-02-27T12:18:39.113Z,145
2019-02-27T12:19:35.385Z,145
2019-02-27T12:20:35.373Z,145
2019-02-27T12:21:35.756Z,145
2019-02-27T12:22:39.787Z,145
2019-02-27T12:23:35.114Z,145
2019-02-27T12:24:35.112Z,145
2019-02-27T12:25:39.548Z,145
2019-02-27T12:26:39.696Z,145
2019-02-27T12:27:57.707Z,145
2019-02-27T12:28:35.321Z,145
2019-02-27T12:29:36.612Z,145
2019-02-27T12:30:39.619Z,145
2019-02-27T12:31:35.296Z,145
2019-02-27T12:32:35.291Z,145
2019-02-27T12:33:39.217Z,140
2019-02-27T12:34:39.260Z,140
2019-02-27T12:35:35.280Z,140
2019-02-27T12:36:35.259Z,140
2019-02-27T12:37:41.205Z,140
2019-02-27T12:38:35.247Z,140
2019-02-27T12:39:35.243Z,140
2019-02-27T12:40:35.239Z,140
2019-02-27T12:41:39.364Z,140
2019-02-27T12:42:47.412Z,140
2019-02-27T12:43:35.218Z,140
2019-02-27T12:44:36.937Z,140
2019-02-27T12:45:36.756Z,140
2019-02-27T12:46:39.475Z,140
2019-02-27T12:47:37.585Z,140
2019-02-27T12:48:35.426Z,140
2019-02-27T12:49:35.171Z,140
2019-02-27T12:50:38.182Z,140
2019-02-27T12:51:40.487Z,140
2019-02-27T12:52:35.150Z,140
2019-02-27T12:53:35.146Z,140
2019-02-27T12:54:36.833Z,140
2019-02-27T12:55:40.247Z,140
2019-02-27T12:56:35.127Z,140
2019-02-27T12:57:35.136Z,140
2019-02-27T12:58:35.111Z,140
2019-02-27T12:59:39.885Z,140
2019-02-27T13:00:35.114Z,140
2019-02-27T13:01:35.091Z,140
2019-02-27T13:02:44.845Z,140
2019-02-27T13:03:35.074Z,140
2019-02-27T13:04:35.075Z,140
2019-02-27T13:05:36.801Z,140
2019-02-27T13:06:39.775Z,140
2019-02-27T13:07:35.055Z,140
2019-02-27T13:08:35.043Z,140
2019-02-27T13:09:35.034Z,140
2019-02-27T13:10:40.322Z,140
2019-02-27T13:11:35.029Z,140
2019-02-27T13:12:35.011Z,140
2019-02-27T13:13:35.885Z,140
2019-02-27T13:14:37.933Z,135
2019-02-27T13:15:35.017Z,140
2019-02-27T13:16:34.993Z,140
2019-02-27T13:17:34.980Z,135
2019-02-27T13:18:38.960Z,135
2019-02-27T13:19:34.970Z,135
2019-02-27T13:20:34.988Z,135
2019-02-27T13:21:34.963Z,135
2019-02-27T13:22:38.348Z,135
2019-02-27T13:23:36.298Z,135
2019-02-27T13:24:34.934Z,135
2019-02-27T13:25:35.231Z,135
2019-02-27T13:26:39.219Z,135
2019-02-27T13:27:34.960Z,135
2019-02-27T13:28:34.909Z,135
2019-02-27T13:29:34.932Z,135
2019-02-27T13:30:34.667Z,135
2019-02-27T13:31:36.379Z,135
2019-02-27T13:32:36.907Z,135
2019-02-27T13:33:38.870Z,135
2019-02-27T13:34:34.879Z,135
2019-02-27T13:35:35.933Z,135
2019-02-27T13:36:39.798Z,135
2019-02-27T13:37:34.856Z,135
2019-02-27T13:38:34.843Z,135
2019-02-27T13:39:35.481Z,135
2019-02-27T13:40:40.160Z,135
2019-02-27T13:41:34.838Z,135
2019-02-27T13:42:34.586Z,135
2019-02-27T13:43:36.393Z,135
2019-02-27T13:44:41.312Z,135
2019-02-27T13:45:34.814Z,135
2019-02-27T13:46:34.807Z,135
2019-02-27T13:47:38.020Z,135
2019-02-27T13:48:34.540Z,135
2019-02-27T13:49:35.419Z,135
2019-02-27T13:50:36.427Z,130
2019-02-27T13:51:40.273Z,130
2019-02-27T13:52:35.149Z,130
2019-02-27T13:53:36.215Z,130
2019-02-27T13:54:40.627Z,130
2019-02-27T13:55:34.738Z,130
2019-02-27T13:56:37.062Z,130
2019-02-27T13:57:35.332Z,130
2019-02-27T13:58:38.116Z,130
2019-02-27T13:59:35.872Z,130
2019-02-27T14:00:35.560Z,130
2019-02-27T14:01:38.038Z,130
2019-02-27T14:02:39.378Z,130
2019-02-27T14:03:35.517Z,130
2019-02-27T14:04:34.689Z,130
2019-02-27T14:05:39.962Z,130
2019-02-27T14:06:34.413Z,130
2019-02-27T14:07:34.657Z,130
2019-02-27T14:08:38.837Z,130
2019-02-27T14:09:34.632Z,130
2019-02-27T14:10:34.653Z,130
2019-02-27T14:11:35.292Z,130
2019-02-27T14:12:41.152Z,125